createdAt,value
2017-10-25T00:00:16.520Z,0
2017-10-25T00:01:18.953Z,0
2017-10-25T00:02:21.380Z,0
2017-10-25T00:03:23.820Z,0
2017-10-25T00:04:26.245Z,0
2017-10-25T00:05:28.682Z,0
2017-10-25T00:06:31.829Z,0
2017-10-25T00:07:34.267Z,0
2017-10-25T00:08:36.687Z,0
2017-10-25T00:09:39.486Z,0
2017-10-25T00:10:41.912Z,0
2017-10-25T00:11:44.346Z,0
2017-10-25T00:12:46.773Z,0
2017-10-25T00:13:49.209Z,0
2017-10-25T00:14:51.637Z,0
2017-10-25T00:15:54.079Z,0
2017-10-25T00:16:56.511Z,0
2017-10-25T00:17:58.943Z,0
2017-10-25T00:19:01.373Z,0
2017-10-25T00:20:03.802Z,0
2017-10-25T00:21:06.229Z,0
2017-10-25T00:22:08.677Z,0
2017-10-25T00:23:11.091Z,0
2017-10-25T00:24:13.530Z,0
2017-10-25T00:25:15.965Z,0
2017-10-25T00:26:18.391Z,0
2017-10-25T00:27:20.825Z,0
2017-10-25T00:28:23.265Z,0
2017-10-25T00:29:26.040Z,0
2017-10-25T00:30:28.478Z,0
2017-10-25T00:31:31.253Z,0
2017-10-25T00:32:34.047Z,0
2017-10-25T00:33:36.490Z,0
2017-10-25T00:34:38.920Z,0
2017-10-25T00:35:41.357Z,0
2017-10-25T00:36:43.785Z,0
2017-10-25T00:37:46.238Z,0
2017-10-25T00:38:48.659Z,0
2017-10-25T00:39:51.089Z,0
2017-10-25T00:40:53.516Z,0
2017-10-25T00:41:55.949Z,0
2017-10-25T00:42:58.388Z,0
2017-10-25T00:44:01.178Z,0
2017-10-25T00:45:03.618Z,0
2017-10-25T00:46:06.397Z,0
2017-10-25T00:47:09.201Z,0
2017-10-25T00:48:11.644Z,0
2017-10-25T00:49:14.074Z,0
2017-10-25T00:50:16.859Z,0
2017-10-25T00:51:19.294Z,0
2017-10-25T00:52:21.736Z,0
2017-10-25T00:53:24.167Z,0
2017-10-25T00:54:26.981Z,0
2017-10-25T00:55:29.401Z,0
2017-10-25T00:56:31.840Z,0
2017-10-25T00:57:34.292Z,0
2017-10-25T00:58:36.715Z,0
2017-10-25T00:59:39.150Z,0
2017-10-25T01:00:41.582Z,0
2017-10-25T01:01:44.019Z,0
2017-10-25T01:02:46.459Z,0
2017-10-25T01:03:48.884Z,0
2017-10-25T01:04:51.318Z,0
2017-10-25T01:05:53.758Z,0
2017-10-25T01:06:56.175Z,0
2017-10-25T01:07:58.619Z,0
2017-10-25T01:09:01.047Z,0
2017-10-25T01:10:03.877Z,0
2017-10-25T01:11:06.310Z,0
2017-10-25T01:12:08.750Z,0
2017-10-25T01:13:11.554Z,0
2017-10-25T01:14:13.988Z,0
2017-10-25T01:15:16.417Z,0
2017-10-25T01:16:18.854Z,0
2017-10-25T01:17:21.650Z,0
2017-10-25T01:18:24.076Z,0
2017-10-25T01:19:26.509Z,0
2017-10-25T01:20:28.948Z,0
2017-10-25T01:21:31.369Z,0
2017-10-25T01:22:33.810Z,0
2017-10-25T01:23:36.231Z,0
2017-10-25T01:24:38.664Z,0
2017-10-25T01:25:41.099Z,0
2017-10-25T01:26:43.536Z,0
2017-10-25T01:27:45.962Z,0
2017-10-25T01:28:48.412Z,0
2017-10-25T01:29:50.851Z,0
2017-10-25T01:30:53.272Z,0
2017-10-25T01:31:55.720Z,0
2017-10-25T01:32:58.141Z,0
2017-10-25T01:34:00.571Z,0
2017-10-25T01:35:03.009Z,0
2017-10-25T01:36:05.439Z,0
2017-10-25T01:37:07.872Z,0
2017-10-25T01:38:10.310Z,0
2017-10-25T01:39:12.735Z,0
2017-10-25T01:40:15.177Z,0
2017-10-25T01:41:17.608Z,0
2017-10-25T01:42:20.048Z,0
2017-10-25T01:43:22.477Z,0
2017-10-25T01:44:24.910Z,0
2017-10-25T01:45:27.340Z,0
2017-10-25T01:46:29.783Z,0
2017-10-25T01:47:32.209Z,0
2017-10-25T01:48:34.653Z,0
2017-10-25T01:49:37.074Z,0
2017-10-25T01:50:39.509Z,0
2017-10-25T01:51:42.298Z,0
2017-10-25T01:52:44.733Z,0
2017-10-25T01:53:47.534Z,0
2017-10-25T01:54:49.968Z,0
2017-10-25T01:55:52.401Z,0
2017-10-25T01:56:54.840Z,0
2017-10-25T01:57:57.271Z,0
2017-10-25T01:58:59.704Z,0
2017-10-25T02:00:02.488Z,0
2017-10-25T02:01:04.930Z,0
2017-10-25T02:02:07.362Z,0
2017-10-25T02:03:09.794Z,0
2017-10-25T02:04:12.243Z,0
2017-10-25T02:05:14.667Z,0
2017-10-25T02:06:17.092Z,0
2017-10-25T02:07:19.527Z,0
2017-10-25T02:08:22.315Z,0
2017-10-25T02:09:24.746Z,0
2017-10-25T02:10:27.185Z,0
2017-10-25T02:11:29.605Z,0
2017-10-25T02:12:32.406Z,0
2017-10-25T02:13:34.852Z,0
2017-10-25T02:14:37.274Z,0
2017-10-25T02:15:39.716Z,0
2017-10-25T02:16:42.138Z,0
2017-10-25T02:17:44.574Z,0
2017-10-25T02:18:47.008Z,0
2017-10-25T02:19:49.437Z,0
2017-10-25T02:20:51.861Z,0
2017-10-25T02:21:54.295Z,0
2017-10-25T02:22:56.737Z,0
2017-10-25T02:23:59.176Z,0
2017-10-25T02:25:01.962Z,0
2017-10-25T02:26:04.389Z,0
2017-10-25T02:27:06.825Z,0
2017-10-25T02:28:09.281Z,0
2017-10-25T02:29:11.692Z,0
2017-10-25T02:30:14.132Z,0
2017-10-25T02:31:16.922Z,0
2017-10-25T02:32:19.713Z,0
2017-10-25T02:33:22.137Z,0
2017-10-25T02:34:24.580Z,0
2017-10-25T02:35:27.380Z,0
2017-10-25T02:36:30.181Z,0
2017-10-25T02:37:32.606Z,0
2017-10-25T02:38:35.044Z,0
2017-10-25T02:39:37.488Z,0
2017-10-25T02:40:39.918Z,0
2017-10-25T02:41:42.352Z,0
2017-10-25T02:42:44.795Z,0
2017-10-25T02:43:47.229Z,0
2017-10-25T02:44:49.672Z,0
2017-10-25T02:45:52.107Z,0
2017-10-25T02:46:54.526Z,0
2017-10-25T02:47:56.970Z,0
2017-10-25T02:48:59.765Z,0
2017-10-25T02:50:02.192Z,0
2017-10-25T02:51:04.631Z,0
2017-10-25T02:52:07.419Z,0
2017-10-25T02:53:10.208Z,0
2017-10-25T02:54:12.658Z,0
2017-10-25T02:55:15.080Z,0
2017-10-25T02:56:17.522Z,0
2017-10-25T02:57:20.340Z,0
2017-10-25T02:58:22.776Z,0
2017-10-25T02:59:25.206Z,0
2017-10-25T03:00:27.638Z,0
2017-10-25T03:01:30.087Z,0
2017-10-25T03:02:32.513Z,0
2017-10-25T03:03:34.939Z,0
2017-10-25T03:04:37.374Z,0
2017-10-25T03:05:39.809Z,0
2017-10-25T03:06:42.236Z,0
2017-10-25T03:07:44.669Z,0
2017-10-25T03:08:47.100Z,0
2017-10-25T03:09:49.533Z,0
2017-10-25T03:10:52.337Z,0
2017-10-25T03:11:54.772Z,0
2017-10-25T03:12:57.204Z,0
2017-10-25T03:13:59.641Z,0
2017-10-25T03:15:02.079Z,0
2017-10-25T03:16:04.514Z,0
2017-10-25T03:17:06.951Z,0
2017-10-25T03:18:09.379Z,0
2017-10-25T03:19:11.815Z,0
2017-10-25T03:20:14.245Z,0
2017-10-25T03:21:16.673Z,0
2017-10-25T03:22:19.105Z,0
2017-10-25T03:23:21.546Z,0
2017-10-25T03:24:23.975Z,0
2017-10-25T03:25:26.415Z,0
2017-10-25T03:26:28.840Z,0
2017-10-25T03:27:31.633Z,0
2017-10-25T03:28:34.443Z,0
2017-10-25T03:29:37.259Z,0
2017-10-25T03:30:39.669Z,0
2017-10-25T03:31:42.096Z,0
2017-10-25T03:32:44.537Z,0
2017-10-25T03:33:46.973Z,0
2017-10-25T03:34:49.391Z,0
2017-10-25T03:35:51.835Z,0
2017-10-25T03:36:54.274Z,0
2017-10-25T03:37:57.089Z,0
2017-10-25T03:38:59.532Z,0
2017-10-25T03:40:02.325Z,0
2017-10-25T03:41:04.766Z,0
2017-10-25T03:42:07.204Z,0
2017-10-25T03:43:09.624Z,0
2017-10-25T03:44:12.052Z,0
2017-10-25T03:45:14.504Z,0
2017-10-25T03:46:16.921Z,0
2017-10-25T03:47:19.356Z,0
2017-10-25T03:48:21.797Z,0
2017-10-25T03:49:24.227Z,0
2017-10-25T03:50:26.662Z,0
2017-10-25T03:51:29.093Z,0
2017-10-25T03:52:31.524Z,0
2017-10-25T03:53:33.973Z,0
2017-10-25T03:54:36.757Z,0
2017-10-25T03:55:39.189Z,0
2017-10-25T03:56:41.620Z,0
2017-10-25T03:57:44.065Z,0
2017-10-25T03:58:46.482Z,0
2017-10-25T03:59:48.925Z,0
2017-10-25T04:00:51.365Z,0
2017-10-25T04:01:53.794Z,0
2017-10-25T04:02:56.240Z,0
2017-10-25T04:03:58.662Z,0
2017-10-25T04:05:01.095Z,0
2017-10-25T04:06:03.595Z,0
2017-10-25T04:07:06.030Z,0
2017-10-25T04:08:08.463Z,0
2017-10-25T04:09:10.890Z,0
2017-10-25T04:10:13.324Z,0
2017-10-25T04:11:15.757Z,0
2017-10-25T04:12:18.188Z,0
2017-10-25T04:13:20.622Z,0
2017-10-25T04:14:23.056Z,0
2017-10-25T04:15:25.484Z,0
2017-10-25T04:16:27.922Z,0
2017-10-25T04:17:30.356Z,0
2017-10-25T04:18:32.790Z,0
2017-10-25T04:19:35.237Z,0
2017-10-25T04:20:37.667Z,0
2017-10-25T04:21:40.101Z,0
2017-10-25T04:22:42.540Z,0
2017-10-25T04:23:44.977Z,0
2017-10-25T04:24:47.413Z,0
2017-10-25T04:25:49.849Z,0
2017-10-25T04:26:52.266Z,0
2017-10-25T04:27:54.709Z,0
2017-10-25T04:28:57.139Z,0
2017-10-25T04:29:59.571Z,0
2017-10-25T04:31:02.007Z,0
2017-10-25T04:32:04.440Z,0
2017-10-25T04:33:06.889Z,0
2017-10-25T04:34:09.310Z,0
2017-10-25T04:35:11.750Z,0
2017-10-25T04:36:14.186Z,0
2017-10-25T04:37:16.621Z,0
2017-10-25T04:38:19.398Z,0
2017-10-25T04:39:21.839Z,0
2017-10-25T04:40:24.259Z,0
2017-10-25T04:41:26.696Z,0
2017-10-25T04:42:29.138Z,0
2017-10-25T04:43:31.557Z,0
2017-10-25T04:44:33.998Z,0
2017-10-25T04:45:36.432Z,0
2017-10-25T04:46:38.870Z,0
2017-10-25T04:47:41.301Z,0
2017-10-25T04:48:43.744Z,0
2017-10-25T04:49:46.171Z,0
2017-10-25T04:50:48.611Z,0
2017-10-25T04:51:51.044Z,0
2017-10-25T04:52:53.465Z,0
2017-10-25T04:53:55.900Z,0
2017-10-25T04:54:58.337Z,0
2017-10-25T04:56:00.770Z,0
2017-10-25T04:57:03.214Z,0
2017-10-25T04:58:06.017Z,0
2017-10-25T04:59:08.451Z,0
2017-10-25T05:00:11.236Z,0
2017-10-25T05:01:13.670Z,0
2017-10-25T05:02:16.121Z,0
2017-10-25T05:03:18.550Z,0
2017-10-25T05:04:21.000Z,0
2017-10-25T05:05:23.419Z,0
2017-10-25T05:06:26.657Z,0
2017-10-25T05:07:30.184Z,0
2017-10-25T05:08:34.198Z,0
2017-10-25T05:09:37.184Z,0
2017-10-25T05:10:40.565Z,0
2017-10-25T05:11:43.004Z,0
2017-10-25T05:12:45.433Z,0
2017-10-25T05:13:49.029Z,0
2017-10-25T05:14:51.454Z,0
2017-10-25T05:15:53.894Z,0
2017-10-25T05:16:56.338Z,0
2017-10-25T05:17:58.774Z,0
2017-10-25T05:19:01.205Z,0
2017-10-25T05:20:03.635Z,0
2017-10-25T05:21:06.069Z,0
2017-10-25T05:22:08.504Z,0
2017-10-25T05:23:10.931Z,0
2017-10-25T05:24:13.376Z,0
2017-10-25T05:25:15.802Z,0
2017-10-25T05:26:18.245Z,0
2017-10-25T05:27:20.682Z,0
2017-10-25T05:28:23.127Z,0
2017-10-25T05:29:25.923Z,0
2017-10-25T05:30:28.365Z,0
2017-10-25T05:31:30.791Z,0
2017-10-25T05:32:33.235Z,0
2017-10-25T05:33:35.667Z,0
2017-10-25T05:34:38.849Z,0
2017-10-25T05:35:41.276Z,0
2017-10-25T05:36:43.718Z,0
2017-10-25T05:37:46.158Z,0
2017-10-25T05:38:48.610Z,0
2017-10-25T05:39:51.037Z,0
2017-10-25T05:40:53.460Z,0
2017-10-25T05:41:55.905Z,0
2017-10-25T05:42:58.327Z,0
2017-10-25T05:44:00.766Z,0
2017-10-25T05:45:03.208Z,0
2017-10-25T05:46:05.637Z,0
2017-10-25T05:47:08.436Z,0
2017-10-25T05:48:10.874Z,0
2017-10-25T05:49:13.299Z,0
2017-10-25T05:50:15.744Z,0
2017-10-25T05:51:18.172Z,0
2017-10-25T05:52:20.609Z,0
2017-10-25T05:53:23.048Z,0
2017-10-25T05:54:25.493Z,0
2017-10-25T05:55:27.931Z,0
2017-10-25T05:56:30.374Z,0
2017-10-25T05:57:32.801Z,0
2017-10-25T05:58:35.276Z,0
2017-10-25T05:59:38.078Z,1
2017-10-25T06:00:40.506Z,0
2017-10-25T06:01:42.960Z,0
2017-10-25T06:02:45.383Z,0
2017-10-25T06:03:48.175Z,0
2017-10-25T06:04:50.611Z,0
2017-10-25T06:05:53.047Z,0
2017-10-25T06:06:56.449Z,0
2017-10-25T06:07:59.048Z,0
2017-10-25T06:09:01.485Z,0
2017-10-25T06:10:04.654Z,1
2017-10-25T06:11:07.088Z,1
2017-10-25T06:12:09.530Z,1
2017-10-25T06:13:11.967Z,1
2017-10-25T06:14:14.387Z,1
2017-10-25T06:15:16.813Z,1
2017-10-25T06:16:19.260Z,1
2017-10-25T06:17:21.690Z,1
2017-10-25T06:18:24.122Z,1
2017-10-25T06:19:26.549Z,1
2017-10-25T06:20:28.978Z,2
2017-10-25T06:21:31.423Z,2
2017-10-25T06:22:33.862Z,2
2017-10-25T06:23:36.285Z,3
2017-10-25T06:24:38.726Z,2
2017-10-25T06:25:41.163Z,2
2017-10-25T06:26:43.590Z,2
2017-10-25T06:27:46.021Z,2
2017-10-25T06:28:48.450Z,2
2017-10-25T06:29:50.891Z,2
2017-10-25T06:30:53.317Z,3
2017-10-25T06:31:55.751Z,2
2017-10-25T06:32:58.194Z,4
2017-10-25T06:34:00.627Z,3
2017-10-25T06:35:03.068Z,4
2017-10-25T06:36:05.509Z,3
2017-10-25T06:37:07.945Z,3
2017-10-25T06:38:10.385Z,3
2017-10-25T06:39:12.821Z,4
2017-10-25T06:40:15.240Z,3
2017-10-25T06:41:17.677Z,3
2017-10-25T06:42:20.107Z,4
2017-10-25T06:43:22.888Z,5
2017-10-25T06:44:25.341Z,6
2017-10-25T06:45:27.755Z,6
2017-10-25T06:46:30.188Z,7
2017-10-25T06:47:32.640Z,6
2017-10-25T06:48:35.071Z,7
2017-10-25T06:49:37.509Z,6
2017-10-25T06:50:39.944Z,7
2017-10-25T06:51:42.377Z,6
2017-10-25T06:52:44.824Z,6
2017-10-25T06:53:47.255Z,7
2017-10-25T06:54:49.675Z,6
2017-10-25T06:55:52.125Z,6
2017-10-25T06:56:54.920Z,6
2017-10-25T06:57:57.353Z,5
2017-10-25T06:58:59.781Z,4
2017-10-25T07:00:02.221Z,4
2017-10-25T07:01:04.651Z,4
2017-10-25T07:02:07.086Z,5
2017-10-25T07:03:09.527Z,5
2017-10-25T07:04:11.953Z,6
2017-10-25T07:05:15.124Z,7
2017-10-25T07:06:17.570Z,10
2017-10-25T07:07:19.997Z,12
2017-10-25T07:08:22.813Z,13
2017-10-25T07:09:25.240Z,15
2017-10-25T07:10:28.036Z,14
2017-10-25T07:11:30.472Z,15
2017-10-25T07:12:32.904Z,17
2017-10-25T07:13:35.335Z,18
2017-10-25T07:14:37.769Z,18
2017-10-25T07:15:40.202Z,18
2017-10-25T07:16:42.638Z,20
2017-10-25T07:17:45.072Z,23
2017-10-25T07:18:47.864Z,26
2017-10-25T07:19:50.291Z,27
2017-10-25T07:20:52.727Z,26
2017-10-25T07:21:55.165Z,29
2017-10-25T07:22:57.592Z,28
2017-10-25T07:24:00.042Z,23
2017-10-25T07:25:02.467Z,18
2017-10-25T07:26:05.624Z,18
2017-10-25T07:27:08.051Z,15
2017-10-25T07:28:10.493Z,15
2017-10-25T07:29:12.923Z,14
2017-10-25T07:30:15.344Z,14
2017-10-25T07:31:17.784Z,13
2017-10-25T07:32:20.227Z,13
2017-10-25T07:33:22.655Z,19
2017-10-25T07:34:25.095Z,21
2017-10-25T07:35:27.529Z,21
2017-10-25T07:36:29.962Z,24
2017-10-25T07:37:32.411Z,25
2017-10-25T07:38:34.834Z,27
2017-10-25T07:39:38.005Z,28
2017-10-25T07:40:40.798Z,31
2017-10-25T07:41:43.235Z,31
2017-10-25T07:42:45.672Z,32
2017-10-25T07:43:48.103Z,31
2017-10-25T07:44:50.879Z,29
2017-10-25T07:45:53.320Z,29
2017-10-25T07:46:55.756Z,29
2017-10-25T07:47:58.191Z,28
2017-10-25T07:49:00.630Z,31
2017-10-25T07:50:03.062Z,30
2017-10-25T07:51:05.500Z,32
2017-10-25T07:52:07.934Z,31
2017-10-25T07:53:10.363Z,31
2017-10-25T07:54:12.802Z,27
2017-10-25T07:55:15.223Z,29
2017-10-25T07:56:17.665Z,30
2017-10-25T07:57:20.102Z,26
2017-10-25T07:58:22.536Z,24
2017-10-25T07:59:24.973Z,25
2017-10-25T08:00:27.413Z,24
2017-10-25T08:01:29.843Z,24
2017-10-25T08:02:32.280Z,26
2017-10-25T08:03:34.698Z,29
2017-10-25T08:04:37.136Z,33
2017-10-25T08:05:39.570Z,35
2017-10-25T08:06:42.009Z,28
2017-10-25T08:07:44.440Z,20
2017-10-25T08:08:46.878Z,18
2017-10-25T08:09:49.307Z,15
2017-10-25T08:10:51.747Z,11
2017-10-25T08:11:54.174Z,12
2017-10-25T08:12:56.612Z,10
2017-10-25T08:13:59.044Z,14
2017-10-25T08:15:01.483Z,14
2017-10-25T08:16:04.294Z,21
2017-10-25T08:17:06.736Z,21
2017-10-25T08:18:09.159Z,18
2017-10-25T08:19:11.595Z,13
2017-10-25T08:20:14.041Z,14
2017-10-25T08:21:16.475Z,9
2017-10-25T08:22:18.905Z,8
2017-10-25T08:23:21.334Z,9
2017-10-25T08:24:23.764Z,9
2017-10-25T08:25:26.554Z,11
2017-10-25T08:26:28.995Z,12
2017-10-25T08:27:31.416Z,18
2017-10-25T08:28:33.854Z,19
2017-10-25T08:29:36.297Z,30
2017-10-25T08:30:38.725Z,42
2017-10-25T08:31:41.159Z,43
2017-10-25T08:32:43.584Z,43
2017-10-25T08:33:46.013Z,40
2017-10-25T08:34:48.453Z,45
2017-10-25T08:35:50.885Z,52
2017-10-25T08:36:53.310Z,68
2017-10-25T08:37:55.766Z,70
2017-10-25T08:38:58.191Z,76
2017-10-25T08:40:00.630Z,71
2017-10-25T08:41:03.108Z,61
2017-10-25T08:42:05.779Z,87
2017-10-25T08:43:08.215Z,64
2017-10-25T08:44:10.656Z,60
2017-10-25T08:45:13.092Z,56
2017-10-25T08:46:15.518Z,55
2017-10-25T08:47:17.954Z,59
2017-10-25T08:48:20.384Z,65
2017-10-25T08:49:22.824Z,55
2017-10-25T08:50:25.659Z,53
2017-10-25T08:51:28.080Z,54
2017-10-25T08:52:30.518Z,55
2017-10-25T08:53:32.955Z,56
2017-10-25T08:54:35.759Z,55
2017-10-25T08:55:38.194Z,54
2017-10-25T08:56:40.630Z,52
2017-10-25T08:57:43.069Z,52
2017-10-25T08:58:45.510Z,52
2017-10-25T08:59:47.945Z,52
2017-10-25T09:00:50.755Z,50
2017-10-25T09:01:53.178Z,57
2017-10-25T09:02:55.621Z,58
2017-10-25T09:03:58.055Z,70
2017-10-25T09:05:00.491Z,53
2017-10-25T09:06:02.941Z,59
2017-10-25T09:07:05.398Z,55
2017-10-25T09:08:07.824Z,48
2017-10-25T09:09:10.260Z,45
2017-10-25T09:10:12.692Z,37
2017-10-25T09:11:15.125Z,34
2017-10-25T09:12:17.928Z,32
2017-10-25T09:13:20.768Z,27
2017-10-25T09:14:23.171Z,27
2017-10-25T09:15:25.611Z,29
2017-10-25T09:16:28.040Z,29
2017-10-25T09:17:30.482Z,28
2017-10-25T09:18:32.912Z,23
2017-10-25T09:19:35.351Z,23
2017-10-25T09:20:37.776Z,19
2017-10-25T09:21:40.217Z,22
2017-10-25T09:22:42.672Z,29
2017-10-25T09:23:45.117Z,19
2017-10-25T09:24:47.550Z,18
2017-10-25T09:25:49.989Z,17
2017-10-25T09:26:52.407Z,17
2017-10-25T09:27:55.204Z,22
2017-10-25T09:28:57.629Z,26
2017-10-25T09:30:00.066Z,24
2017-10-25T09:31:02.501Z,29
2017-10-25T09:32:04.933Z,34
2017-10-25T09:33:07.370Z,43
2017-10-25T09:34:10.172Z,35
2017-10-25T09:35:12.606Z,40
2017-10-25T09:36:15.400Z,50
2017-10-25T09:37:17.838Z,59
2017-10-25T09:38:20.258Z,49
2017-10-25T09:39:22.704Z,49
2017-10-25T09:40:25.138Z,53
2017-10-25T09:41:27.561Z,49
2017-10-25T09:42:30.009Z,45
2017-10-25T09:43:32.440Z,47
2017-10-25T09:44:34.872Z,52
2017-10-25T09:45:37.304Z,59
2017-10-25T09:46:39.735Z,57
2017-10-25T09:47:42.170Z,64
2017-10-25T09:48:44.620Z,63
2017-10-25T09:49:47.043Z,51
2017-10-25T09:50:49.469Z,47
2017-10-25T09:51:51.910Z,60
2017-10-25T09:52:54.340Z,55
2017-10-25T09:53:57.159Z,61
2017-10-25T09:54:59.597Z,77
2017-10-25T09:56:02.031Z,57
2017-10-25T09:57:04.828Z,47
2017-10-25T09:58:07.258Z,75
2017-10-25T09:59:09.699Z,97
2017-10-25T10:00:12.144Z,102
2017-10-25T10:01:14.575Z,108
2017-10-25T10:02:17.016Z,106
2017-10-25T10:03:19.445Z,98
2017-10-25T10:04:21.880Z,106
2017-10-25T10:05:24.312Z,102
2017-10-25T10:06:26.742Z,105
2017-10-25T10:07:29.181Z,111
2017-10-25T10:08:31.611Z,254
2017-10-25T10:09:34.038Z,144
2017-10-25T10:10:36.475Z,314
2017-10-25T10:11:38.914Z,281
2017-10-25T10:12:41.335Z,138
2017-10-25T10:13:43.770Z,261
2017-10-25T10:14:46.204Z,188
2017-10-25T10:15:48.648Z,183
2017-10-25T10:16:51.436Z,359
2017-10-25T10:17:53.879Z,350
2017-10-25T10:18:56.312Z,328
2017-10-25T10:19:59.112Z,174
2017-10-25T10:21:01.553Z,130
2017-10-25T10:22:03.988Z,180
2017-10-25T10:23:06.430Z,366
2017-10-25T10:24:08.870Z,383
2017-10-25T10:25:11.654Z,341
2017-10-25T10:26:14.091Z,323
2017-10-25T10:27:16.529Z,297
2017-10-25T10:28:18.962Z,299
2017-10-25T10:29:21.413Z,285
2017-10-25T10:30:23.847Z,286
2017-10-25T10:31:26.288Z,207
2017-10-25T10:32:29.085Z,283
2017-10-25T10:33:31.527Z,317
2017-10-25T10:34:33.966Z,319
2017-10-25T10:35:36.406Z,326
2017-10-25T10:36:38.852Z,360
2017-10-25T10:37:41.308Z,371
2017-10-25T10:38:43.733Z,152
2017-10-25T10:39:46.520Z,146
2017-10-25T10:40:48.977Z,135
2017-10-25T10:41:51.761Z,140
2017-10-25T10:42:54.191Z,165
2017-10-25T10:43:56.637Z,180
2017-10-25T10:44:59.080Z,190
2017-10-25T10:46:01.522Z,238
2017-10-25T10:47:03.972Z,160
2017-10-25T10:48:06.400Z,171
2017-10-25T10:49:08.841Z,184
2017-10-25T10:50:11.293Z,183
2017-10-25T10:51:13.728Z,209
2017-10-25T10:52:16.165Z,143
2017-10-25T10:53:18.606Z,127
2017-10-25T10:54:21.043Z,126
2017-10-25T10:55:23.491Z,103
2017-10-25T10:56:25.925Z,90
2017-10-25T10:57:28.378Z,83
2017-10-25T10:58:30.821Z,73
2017-10-25T10:59:33.256Z,68
2017-10-25T11:00:35.703Z,62
2017-10-25T11:01:38.145Z,57
2017-10-25T11:02:40.580Z,55
2017-10-25T11:03:43.026Z,54
2017-10-25T11:04:45.455Z,56
2017-10-25T11:05:47.897Z,54
2017-10-25T11:06:50.341Z,50
2017-10-25T11:07:52.782Z,47
2017-10-25T11:08:55.227Z,47
2017-10-25T11:09:57.669Z,46
2017-10-25T11:11:00.106Z,43
2017-10-25T11:12:02.545Z,39
2017-10-25T11:13:04.990Z,41
2017-10-25T11:14:07.415Z,40
2017-10-25T11:15:10.222Z,39
2017-10-25T11:16:12.998Z,33
2017-10-25T11:17:15.439Z,33
2017-10-25T11:18:17.881Z,31
2017-10-25T11:19:20.675Z,29
2017-10-25T11:20:23.110Z,27
2017-10-25T11:21:25.558Z,27
2017-10-25T11:22:27.997Z,23
2017-10-25T11:23:30.436Z,23
2017-10-25T11:24:33.231Z,26
2017-10-25T11:25:35.676Z,27
2017-10-25T11:26:38.455Z,28
2017-10-25T11:27:40.896Z,29
2017-10-25T11:28:43.685Z,26
2017-10-25T11:29:46.108Z,28
2017-10-25T11:30:48.553Z,28
2017-10-25T11:31:50.982Z,27
2017-10-25T11:32:53.428Z,27
2017-10-25T11:33:55.864Z,30
2017-10-25T11:34:58.316Z,32
2017-10-25T11:36:00.744Z,30
2017-10-25T11:37:03.190Z,29
2017-10-25T11:38:05.982Z,26
2017-10-25T11:39:08.411Z,27
2017-10-25T11:40:10.863Z,26
2017-10-25T11:41:13.295Z,28
2017-10-25T11:42:15.727Z,28
2017-10-25T11:43:18.159Z,32
2017-10-25T11:44:20.600Z,30
2017-10-25T11:45:23.036Z,29
2017-10-25T11:46:25.467Z,33
2017-10-25T11:47:27.899Z,36
2017-10-25T11:48:30.338Z,32
2017-10-25T11:49:32.781Z,26
2017-10-25T11:50:35.573Z,31
2017-10-25T11:51:38.007Z,32
2017-10-25T11:52:40.447Z,31
2017-10-25T11:53:42.885Z,39
2017-10-25T11:54:45.307Z,37
2017-10-25T11:55:47.750Z,32
2017-10-25T11:56:50.538Z,30
2017-10-25T11:57:52.972Z,34
2017-10-25T11:58:55.406Z,36
2017-10-25T11:59:58.216Z,50
2017-10-25T12:01:00.636Z,56
2017-10-25T12:02:03.087Z,49
2017-10-25T12:03:05.516Z,41
2017-10-25T12:04:07.940Z,36
2017-10-25T12:05:10.736Z,32
2017-10-25T12:06:13.536Z,25
2017-10-25T12:07:15.976Z,26
2017-10-25T12:08:18.408Z,28
2017-10-25T12:09:21.222Z,27
2017-10-25T12:10:23.649Z,28
2017-10-25T12:11:26.097Z,26
2017-10-25T12:12:28.526Z,22
2017-10-25T12:13:30.956Z,23
2017-10-25T12:14:33.391Z,24
2017-10-25T12:15:35.824Z,21
2017-10-25T12:16:38.265Z,22
2017-10-25T12:17:40.701Z,24
2017-10-25T12:18:43.133Z,25
2017-10-25T12:19:45.575Z,23
2017-10-25T12:20:48.362Z,21
2017-10-25T12:21:50.812Z,22
2017-10-25T12:22:53.239Z,26
2017-10-25T12:23:55.857Z,33
2017-10-25T12:24:58.325Z,27
2017-10-25T12:26:00.764Z,27
2017-10-25T12:27:03.201Z,30
2017-10-25T12:28:05.619Z,26
2017-10-25T12:29:08.061Z,24
2017-10-25T12:30:10.499Z,30
2017-10-25T12:31:12.935Z,35
2017-10-25T12:32:15.379Z,28
2017-10-25T12:33:17.816Z,26
2017-10-25T12:34:20.963Z,26
2017-10-25T12:35:23.404Z,30
2017-10-25T12:36:25.828Z,28
2017-10-25T12:37:28.270Z,29
2017-10-25T12:38:30.701Z,27
2017-10-25T12:39:33.130Z,32
2017-10-25T12:40:35.983Z,36
2017-10-25T12:41:38.821Z,32
2017-10-25T12:42:41.493Z,34
2017-10-25T12:43:43.974Z,25
2017-10-25T12:44:46.406Z,27
2017-10-25T12:45:48.844Z,18
2017-10-25T12:46:51.283Z,24
2017-10-25T12:47:53.727Z,21
2017-10-25T12:48:56.161Z,19
2017-10-25T12:49:58.945Z,20
2017-10-25T12:51:01.392Z,19
2017-10-25T12:52:03.830Z,14
2017-10-25T12:53:06.250Z,13
2017-10-25T12:54:08.701Z,20
2017-10-25T12:55:11.131Z,21
2017-10-25T12:56:13.570Z,14
2017-10-25T12:57:16.368Z,14
2017-10-25T12:58:18.801Z,13
2017-10-25T12:59:21.246Z,14
2017-10-25T13:00:23.694Z,18
2017-10-25T13:01:26.117Z,16
2017-10-25T13:02:28.557Z,18
2017-10-25T13:03:30.992Z,21
2017-10-25T13:04:33.428Z,20
2017-10-25T13:05:35.859Z,21
2017-10-25T13:06:38.290Z,21
2017-10-25T13:07:40.729Z,22
2017-10-25T13:08:43.154Z,20
2017-10-25T13:09:45.590Z,19
2017-10-25T13:10:48.017Z,21
2017-10-25T13:11:50.451Z,24
2017-10-25T13:12:52.895Z,34
2017-10-25T13:13:55.686Z,29
2017-10-25T13:14:58.119Z,23
2017-10-25T13:16:00.565Z,29
2017-10-25T13:17:03.095Z,25
2017-10-25T13:18:05.536Z,23
2017-10-25T13:19:07.970Z,20
2017-10-25T13:20:10.396Z,17
2017-10-25T13:21:12.842Z,15
2017-10-25T13:22:15.276Z,17
2017-10-25T13:23:17.707Z,18
2017-10-25T13:24:20.135Z,20
2017-10-25T13:25:22.582Z,16
2017-10-25T13:26:25.016Z,16
2017-10-25T13:27:27.452Z,18
2017-10-25T13:28:29.908Z,17
2017-10-25T13:29:32.326Z,14
2017-10-25T13:30:34.756Z,17
2017-10-25T13:31:37.398Z,22
2017-10-25T13:32:39.821Z,22
2017-10-25T13:33:42.255Z,17
2017-10-25T13:34:44.686Z,19
2017-10-25T13:35:47.120Z,13
2017-10-25T13:36:49.574Z,13
2017-10-25T13:37:52.003Z,14
2017-10-25T13:38:54.435Z,17
2017-10-25T13:39:57.230Z,10
2017-10-25T13:40:59.662Z,12
2017-10-25T13:42:02.110Z,13
2017-10-25T13:43:04.545Z,10
2017-10-25T13:44:06.966Z,14
2017-10-25T13:45:09.407Z,12
2017-10-25T13:46:12.213Z,14
2017-10-25T13:47:14.641Z,12
2017-10-25T13:48:17.091Z,11
2017-10-25T13:49:19.516Z,11
2017-10-25T13:50:21.960Z,10
2017-10-25T13:51:24.754Z,8
2017-10-25T13:52:27.190Z,9
2017-10-25T13:53:29.630Z,13
2017-10-25T13:54:32.062Z,19
2017-10-25T13:55:35.139Z,19
2017-10-25T13:56:37.572Z,16
2017-10-25T13:57:40.003Z,17
2017-10-25T13:58:42.442Z,20
2017-10-25T13:59:44.876Z,19
2017-10-25T14:00:47.306Z,21
2017-10-25T14:01:49.741Z,22
2017-10-25T14:02:52.180Z,17
2017-10-25T14:03:54.614Z,14
2017-10-25T14:04:57.046Z,10
2017-10-25T14:05:59.477Z,12
2017-10-25T14:07:01.908Z,12
2017-10-25T14:08:04.357Z,8
2017-10-25T14:09:06.778Z,18
2017-10-25T14:10:09.219Z,19
2017-10-25T14:11:11.650Z,15
2017-10-25T14:12:14.087Z,7
2017-10-25T14:13:16.517Z,9
2017-10-25T14:14:18.958Z,9
2017-10-25T14:15:21.390Z,14
2017-10-25T14:16:23.821Z,11
2017-10-25T14:17:26.261Z,8
2017-10-25T14:18:28.695Z,7
2017-10-25T14:19:31.488Z,8
2017-10-25T14:20:33.940Z,7
2017-10-25T14:21:36.366Z,5
2017-10-25T14:22:38.804Z,6
2017-10-25T14:23:41.232Z,5
2017-10-25T14:24:43.666Z,5
2017-10-25T14:25:46.461Z,8
2017-10-25T14:26:49.251Z,10
2017-10-25T14:27:51.690Z,12
2017-10-25T14:28:54.112Z,16
2017-10-25T14:29:56.926Z,12
2017-10-25T14:30:59.357Z,12
2017-10-25T14:32:01.799Z,10
2017-10-25T14:33:04.236Z,17
2017-10-25T14:34:06.674Z,15
2017-10-25T14:35:09.118Z,17
2017-10-25T14:36:11.555Z,17
2017-10-25T14:37:13.990Z,23
2017-10-25T14:38:16.418Z,26
2017-10-25T14:39:18.860Z,27
2017-10-25T14:40:21.289Z,26
2017-10-25T14:41:23.721Z,26
2017-10-25T14:42:26.157Z,27
2017-10-25T14:43:28.593Z,27
2017-10-25T14:44:31.028Z,27
2017-10-25T14:45:33.463Z,30
2017-10-25T14:46:35.903Z,31
2017-10-25T14:47:38.338Z,29
2017-10-25T14:48:40.776Z,28
2017-10-25T14:49:43.213Z,27
2017-10-25T14:50:45.627Z,26
2017-10-25T14:51:48.064Z,26
2017-10-25T14:52:50.512Z,25
2017-10-25T14:53:52.941Z,24
2017-10-25T14:54:55.376Z,25
2017-10-25T14:55:57.803Z,24
2017-10-25T14:57:00.241Z,25
2017-10-25T14:58:02.685Z,24
2017-10-25T14:59:05.126Z,24
2017-10-25T15:00:07.547Z,23
2017-10-25T15:01:10.362Z,23
2017-10-25T15:02:12.801Z,23
2017-10-25T15:03:15.231Z,22
2017-10-25T15:04:17.670Z,23